createdAt,value
2018-10-18T00:01:29.680Z,29.70
2018-10-18T00:03:58.089Z,31.13
2018-10-18T00:06:26.348Z,34.67
2018-10-18T00:08:54.661Z,34.00
2018-10-18T00:11:23.081Z,34.10
2018-10-18T00:13:51.362Z,40.27
2018-10-18T00:16:20.346Z,28.42
2018-10-18T00:18:48.612Z,30.23
2018-10-18T00:21:17.000Z,32.83
2018-10-18T00:23:45.340Z,33.17
2018-10-18T00:26:13.630Z,31.73
2018-10-18T00:28:42.129Z,39.13
2018-10-18T00:31:10.511Z,39.10
2018-10-18T00:33:38.759Z,34.63
2018-10-18T00:36:07.049Z,31.23
2018-10-18T00:38:35.780Z,31.97
2018-10-18T00:41:04.240Z,28.60
2018-10-18T00:43:32.502Z,34.37
2018-10-18T00:46:01.025Z,36.25
2018-10-18T00:48:29.321Z,33.43
2018-10-18T00:50:57.661Z,29.30
2018-10-18T00:53:26.263Z,36.00
2018-10-18T00:55:54.551Z,39.57
2018-10-18T00:58:23.139Z,29.87
2018-10-18T01:00:51.424Z,31.20
2018-10-18T01:03:19.820Z,34.90
2018-10-18T01:05:48.431Z,30.25
2018-10-18T01:08:17.057Z,31.13
2018-10-18T01:10:45.815Z,35.57
2018-10-18T01:13:14.516Z,34.73
2018-10-18T01:15:42.812Z,30.27
2018-10-18T01:18:11.404Z,34.40
2018-10-18T01:20:39.876Z,28.90
2018-10-18T01:23:09.050Z,31.20
2018-10-18T01:25:37.618Z,28.60
2018-10-18T01:28:05.879Z,31.60
2018-10-18T01:30:34.527Z,29.10
2018-10-18T01:33:03.044Z,28.50
2018-10-18T01:35:31.292Z,29.83
2018-10-18T01:37:59.630Z,34.53
2018-10-18T01:40:28.033Z,35.47
2018-10-18T01:42:56.576Z,36.33
2018-10-18T01:45:24.927Z,39.83
2018-10-18T01:47:53.341Z,37.83
2018-10-18T01:50:22.182Z,44.47
2018-10-18T01:52:50.768Z,37.50
2018-10-18T01:55:19.016Z,38.00
2018-10-18T01:57:47.264Z,35.47
2018-10-18T02:00:15.956Z,35.43
2018-10-18T02:02:44.638Z,42.83
2018-10-18T02:05:12.938Z,40.77
2018-10-18T02:07:41.339Z,31.90
2018-10-18T02:10:10.142Z,35.57
2018-10-18T02:12:38.672Z,34.80
2018-10-18T02:15:09.696Z,35.40
2018-10-18T02:17:38.165Z,37.43
2018-10-18T02:20:07.281Z,33.50
2018-10-18T02:22:36.071Z,30.53
2018-10-18T02:25:04.782Z,33.90
2018-10-18T02:27:33.155Z,32.47
2018-10-18T02:30:01.644Z,32.37
2018-10-18T02:32:30.557Z,28.90
2018-10-18T02:34:58.965Z,36.47
2018-10-18T02:37:27.748Z,30.47
2018-10-18T02:39:55.999Z,33.30
2018-10-18T02:42:24.247Z,29.90
2018-10-18T02:44:52.956Z,30.23
2018-10-18T02:47:21.215Z,33.33
2018-10-18T02:49:50.084Z,33.73
2018-10-18T02:52:18.489Z,35.10
2018-10-18T02:54:46.819Z,31.23
2018-10-18T02:57:15.067Z,30.17
2018-10-18T02:59:43.484Z,22.57
2018-10-18T03:02:11.747Z,24.63
2018-10-18T03:04:40.040Z,23.70
2018-10-18T03:07:08.663Z,29.80
2018-10-18T03:09:37.960Z,29.90
2018-10-18T03:12:06.343Z,31.33
2018-10-18T03:14:34.911Z,29.57
2018-10-18T03:17:03.454Z,27.60
2018-10-18T03:19:32.078Z,31.05
2018-10-18T03:22:00.454Z,28.10
2018-10-18T03:24:28.993Z,29.25
2018-10-18T03:26:57.595Z,25.00
2018-10-18T03:29:26.464Z,29.70
2018-10-18T03:31:54.715Z,30.53
2018-10-18T03:34:22.991Z,29.17
2018-10-18T03:36:51.678Z,26.82
2018-10-18T03:39:20.408Z,30.52
2018-10-18T03:41:48.664Z,29.80
2018-10-18T03:44:17.286Z,29.20
2018-10-18T03:46:45.815Z,30.52
2018-10-18T03:49:14.089Z,30.30
2018-10-18T03:51:42.524Z,32.73
2018-10-18T03:54:11.043Z,25.83
2018-10-18T03:56:39.656Z,28.37
2018-10-18T03:59:08.340Z,30.83
2018-10-18T04:01:36.922Z,31.87
2018-10-18T04:04:05.393Z,31.93
2018-10-18T04:06:34.633Z,27.13
2018-10-18T04:09:03.043Z,33.27
2018-10-18T04:11:31.420Z,32.23
2018-10-18T04:13:59.944Z,29.67
2018-10-18T04:16:29.580Z,32.10
2018-10-18T04:18:57.853Z,28.63
2018-10-18T04:21:26.112Z,34.00
2018-10-18T04:23:55.197Z,33.90
2018-10-18T04:26:23.983Z,31.83
2018-10-18T04:28:52.559Z,35.40
2018-10-18T04:31:21.020Z,32.03
2018-10-18T04:33:49.661Z,31.90
2018-10-18T04:36:18.249Z,29.10
2018-10-18T04:38:46.579Z,33.43
2018-10-18T04:41:15.139Z,35.23
2018-10-18T04:43:43.711Z,31.33
2018-10-18T04:46:11.999Z,33.30
2018-10-18T04:48:40.294Z,38.20
2018-10-18T04:51:08.783Z,37.80
2018-10-18T04:53:37.075Z,37.90
2018-10-18T04:56:05.630Z,31.55
2018-10-18T04:58:33.917Z,39.83
2018-10-18T05:01:02.379Z,33.87
2018-10-18T05:03:30.803Z,34.67
2018-10-18T05:06:00.749Z,30.87
2018-10-18T05:08:29.419Z,28.23
2018-10-18T05:10:57.683Z,36.80
2018-10-18T05:13:26.095Z,41.57
2018-10-18T05:15:54.648Z,38.40
2018-10-18T05:18:23.238Z,38.23
2018-10-18T05:20:51.567Z,39.90
2018-10-18T05:23:19.835Z,46.40
2018-10-18T05:25:48.899Z,34.60
2018-10-18T05:28:18.000Z,34.17
2018-10-18T05:30:46.596Z,33.63
2018-10-18T05:33:14.848Z,39.80
2018-10-18T05:35:43.433Z,36.57
2018-10-18T05:38:12.039Z,31.87
2018-10-18T05:40:40.479Z,31.00
2018-10-18T05:43:08.833Z,31.10
2018-10-18T05:45:37.568Z,31.60
2018-10-18T05:48:06.285Z,29.50
2018-10-18T05:50:34.797Z,33.27
2018-10-18T05:53:03.128Z,43.03
2018-10-18T05:55:31.912Z,33.70
2018-10-18T05:58:00.669Z,41.80
2018-10-18T06:00:29.649Z,34.65
2018-10-18T06:02:58.057Z,34.97
2018-10-18T06:05:26.741Z,37.23
2018-10-18T06:07:55.490Z,33.53
2018-10-18T06:10:35.216Z,29.53
2018-10-18T06:13:04.384Z,38.57
2018-10-18T06:15:33.312Z,36.20
2018-10-18T06:18:02.189Z,31.83
2018-10-18T06:20:30.853Z,36.77
2018-10-18T06:22:59.331Z,30.27
2018-10-18T06:25:27.803Z,30.80
2018-10-18T06:27:56.434Z,35.30
2018-10-18T06:30:24.838Z,34.13
2018-10-18T06:32:53.540Z,33.37
2018-10-18T06:35:22.105Z,39.13
2018-10-18T06:37:50.777Z,38.00
2018-10-18T06:40:19.469Z,34.53
2018-10-18T06:42:47.951Z,37.70
2018-10-18T06:45:17.606Z,41.33
2018-10-18T06:47:46.463Z,38.83
2018-10-18T06:50:18.251Z,38.00
2018-10-18T06:52:46.745Z,53.00
2018-10-18T06:55:15.338Z,51.07
2018-10-18T06:57:44.376Z,46.90
2018-10-18T07:00:17.911Z,45.80
2018-10-18T07:02:46.737Z,45.17
2018-10-18T07:05:15.842Z,44.10
2018-10-18T07:07:45.062Z,43.77
2018-10-18T07:10:13.918Z,40.30
2018-10-18T07:12:42.704Z,42.73
2018-10-18T07:15:13.660Z,38.50
2018-10-18T07:17:42.809Z,48.07
2018-10-18T07:20:11.981Z,50.27
2018-10-18T07:22:41.028Z,39.40
2018-10-18T07:25:12.086Z,43.37
2018-10-18T07:27:41.293Z,42.80
2018-10-18T07:30:11.621Z,41.07
2018-10-18T07:32:41.004Z,41.73
2018-10-18T07:35:10.858Z,50.73
2018-10-18T07:37:39.826Z,41.60
2018-10-18T07:40:10.764Z,41.40
2018-10-18T07:42:39.317Z,38.80
2018-10-18T07:45:08.808Z,53.60
2018-10-18T07:47:37.436Z,51.37
2018-10-18T07:50:06.499Z,43.75
2018-10-18T07:52:35.271Z,45.07
2018-10-18T07:55:04.193Z,46.95
2018-10-18T07:57:32.857Z,53.20
2018-10-18T08:00:01.410Z,51.13
2018-10-18T08:02:30.618Z,43.50
2018-10-18T08:04:59.307Z,50.90
2018-10-18T08:07:27.744Z,51.27
2018-10-18T08:09:56.512Z,60.40
2018-10-18T08:12:25.277Z,48.10
2018-10-18T08:14:53.683Z,57.00
2018-10-18T08:17:22.369Z,51.37
2018-10-18T08:19:51.240Z,56.80
2018-10-18T08:22:19.657Z,49.43
2018-10-18T08:24:48.259Z,55.30
2018-10-18T08:27:16.992Z,49.80
2018-10-18T08:29:45.658Z,56.37
2018-10-18T08:32:15.004Z,50.80
2018-10-18T08:34:43.572Z,49.97
2018-10-18T08:37:12.144Z,60.77
2018-10-18T08:39:40.691Z,52.53
2018-10-18T08:42:09.065Z,55.97
2018-10-18T08:44:37.544Z,56.97
2018-10-18T08:47:08.456Z,65.20
2018-10-18T08:49:37.286Z,59.08
2018-10-18T08:52:06.173Z,62.70
2018-10-18T08:54:34.673Z,67.03
2018-10-18T08:57:03.466Z,55.63
2018-10-18T08:59:32.528Z,50.57
2018-10-18T09:02:01.520Z,57.90
2018-10-18T09:04:29.894Z,60.80
2018-10-18T09:06:58.617Z,66.50
2018-10-18T09:09:27.457Z,56.97
2018-10-18T09:11:55.857Z,58.23
2018-10-18T09:14:24.401Z,58.70
2018-10-18T09:16:53.359Z,55.60
2018-10-18T09:19:21.782Z,54.77
2018-10-18T09:21:50.496Z,57.80
2018-10-18T09:24:19.256Z,54.13
2018-10-18T09:26:47.755Z,55.20
2018-10-18T09:29:16.448Z,55.57
2018-10-18T09:31:45.229Z,53.70
2018-10-18T09:34:13.656Z,56.73
2018-10-18T09:36:42.382Z,60.93
2018-10-18T09:39:10.802Z,76.37
2018-10-18T09:41:39.979Z,59.63
2018-10-18T09:44:08.638Z,64.50
2018-10-18T09:46:37.806Z,68.50
2018-10-18T09:49:06.565Z,71.60
2018-10-18T09:51:35.115Z,72.00
2018-10-18T09:54:04.042Z,76.57
2018-10-18T09:56:33.102Z,75.03
2018-10-18T09:59:01.792Z,68.57
2018-10-18T10:01:35.769Z,70.32
2018-10-18T10:04:04.430Z,70.40
2018-10-18T10:06:32.991Z,65.90
2018-10-18T10:09:01.648Z,60.30
2018-10-18T10:11:30.038Z,65.23
2018-10-18T10:13:58.644Z,66.27
2018-10-18T10:16:27.036Z,66.47
2018-10-18T10:18:55.661Z,63.83
2018-10-18T10:21:24.557Z,63.05
2018-10-18T10:23:53.552Z,60.63
2018-10-18T10:26:22.246Z,58.63
2018-10-18T10:28:50.620Z,61.57
2018-10-18T10:31:19.237Z,56.97
2018-10-18T10:33:47.796Z,64.50
2018-10-18T10:36:16.668Z,59.67
2018-10-18T10:38:45.148Z,64.47
2018-10-18T10:41:13.833Z,63.70
2018-10-18T10:43:42.564Z,71.37
2018-10-18T10:46:11.297Z,65.33
2018-10-18T10:48:40.273Z,61.37
2018-10-18T10:51:08.820Z,71.63
2018-10-18T10:53:37.509Z,56.00
2018-10-18T10:56:06.154Z,66.77
2018-10-18T10:58:34.743Z,56.00
2018-10-18T11:01:08.507Z,60.43
2018-10-18T11:03:37.562Z,61.17
2018-10-18T11:06:06.336Z,65.72
2018-10-18T11:08:35.565Z,56.97
2018-10-18T11:11:04.105Z,63.50
2018-10-18T11:13:32.798Z,58.67
2018-10-18T11:16:02.535Z,50.00
2018-10-18T11:18:32.408Z,55.85
2018-10-18T11:21:01.988Z,52.17
2018-10-18T11:23:31.048Z,50.87
2018-10-18T11:25:59.465Z,46.90
2018-10-18T11:28:28.411Z,53.75
2018-10-18T11:30:56.793Z,50.70
2018-10-18T11:33:25.466Z,52.30
2018-10-18T11:35:54.083Z,40.73
2018-10-18T11:38:22.929Z,44.60
2018-10-18T11:40:51.388Z,46.47
2018-10-18T11:43:19.830Z,46.00
2018-10-18T11:45:48.552Z,47.85
2018-10-18T11:48:17.152Z,44.63
2018-10-18T11:50:45.859Z,45.20
2018-10-18T11:53:14.534Z,44.73
2018-10-18T11:55:42.920Z,39.20
2018-10-18T11:58:12.345Z,37.30
2018-10-18T12:00:40.817Z,41.83
2018-10-18T12:03:09.386Z,46.03
2018-10-18T12:05:38.497Z,42.27
2018-10-18T12:08:07.371Z,44.03
2018-10-18T12:10:36.118Z,41.33
2018-10-18T12:13:04.517Z,32.30
2018-10-18T12:15:33.905Z,40.50
2018-10-18T12:18:02.321Z,37.77
2018-10-18T12:20:31.010Z,39.85
2018-10-18T12:22:59.521Z,40.27
2018-10-18T12:25:28.040Z,40.20
2018-10-18T12:27:56.862Z,36.77
2018-10-18T12:30:25.500Z,36.80
2018-10-18T12:32:53.897Z,34.80
2018-10-18T12:35:22.575Z,38.10
2018-10-18T12:37:51.181Z,36.30
2018-10-18T12:40:19.573Z,39.60
2018-10-18T12:42:49.852Z,34.90
2018-10-18T12:45:18.229Z,37.13
2018-10-18T12:47:47.006Z,32.63
2018-10-18T12:50:17.212Z,42.33
2018-10-18T12:52:45.749Z,41.60
2018-10-18T12:55:14.173Z,42.47
2018-10-18T12:57:42.907Z,42.40
2018-10-18T13:00:11.974Z,42.45
2018-10-18T13:02:40.569Z,38.30
2018-10-18T13:05:10.087Z,38.50
2018-10-18T13:07:38.763Z,43.63
2018-10-18T13:10:09.093Z,39.93
2018-10-18T13:12:37.693Z,41.20
2018-10-18T13:15:07.677Z,40.10
2018-10-18T13:17:36.253Z,33.33
2018-10-18T13:20:05.555Z,34.67
2018-10-18T13:22:34.100Z,35.17
2018-10-18T13:25:03.091Z,32.23
2018-10-18T13:27:31.761Z,32.67
2018-10-18T13:30:00.217Z,38.57
2018-10-18T13:32:29.506Z,44.83
2018-10-18T13:34:57.881Z,41.03
2018-10-18T13:37:26.538Z,39.73
2018-10-18T13:39:55.149Z,42.93
2018-10-18T13:42:23.635Z,47.13
2018-10-18T13:44:52.076Z,46.25
2018-10-18T13:47:24.095Z,42.93
2018-10-18T13:49:52.710Z,35.07
2018-10-18T13:52:22.132Z,36.17
2018-10-18T13:54:50.564Z,38.40
2018-10-18T13:57:19.436Z,36.07
2018-10-18T14:00:00.770Z,38.50
2018-10-18T14:02:29.525Z,38.50
2018-10-18T14:04:58.208Z,40.83
2018-10-18T14:07:27.166Z,45.30
2018-10-18T14:09:55.604Z,44.80
2018-10-18T14:12:24.072Z,43.63
2018-10-18T14:14:52.581Z,35.70
2018-10-18T14:17:21.524Z,34.47
2018-10-18T14:19:49.985Z,36.53
2018-10-18T14:22:18.663Z,44.23
2018-10-18T14:24:47.060Z,41.33
2018-10-18T14:27:15.446Z,40.57
2018-10-18T14:29:44.021Z,35.33
2018-10-18T14:32:12.433Z,35.67
2018-10-18T14:34:40.972Z,38.50
2018-10-18T14:37:09.382Z,35.03
2018-10-18T14:39:37.780Z,43.90
2018-10-18T14:42:06.391Z,35.67
2018-10-18T14:44:35.139Z,40.97
2018-10-18T14:47:03.788Z,42.53
2018-10-18T14:49:32.352Z,32.57
2018-10-18T14:52:01.019Z,32.80
2018-10-18T14:54:29.596Z,36.50
2018-10-18T14:56:57.993Z,34.53
2018-10-18T14:59:26.610Z,37.50
2018-10-18T15:01:55.011Z,41.33
2018-10-18T15:04:23.799Z,30.30
2018-10-18T15:06:52.616Z,34.33
2018-10-18T15:09:21.269Z,35.13
2018-10-18T15:11:49.940Z,38.40
2018-10-18T15:14:18.890Z,30.93
2018-10-18T15:16:47.486Z,32.93
2018-10-18T15:19:16.236Z,37.00
2018-10-18T15:21:44.853Z,44.70
2018-10-18T15:24:13.224Z,33.60
2018-10-18T15:26:42.006Z,35.77
2018-10-18T15:29:12.292Z,39.00
2018-10-18T15:31:41.065Z,33.53
2018-10-18T15:34:09.720Z,37.85
2018-10-18T15:36:38.142Z,33.93
2018-10-18T15:39:11.198Z,38.23
2018-10-18T15:41:40.600Z,31.07
2018-10-18T15:44:09.885Z,35.20
2018-10-18T15:46:38.658Z,36.77
2018-10-18T15:49:07.744Z,29.70
2018-10-18T15:51:37.128Z,34.03
2018-10-18T15:54:06.726Z,29.33
2018-10-18T15:56:35.956Z,34.63
2018-10-18T15:59:05.142Z,27.67
2018-10-18T16:01:33.989Z,32.42
2018-10-18T16:04:02.650Z,33.23
2018-10-18T16:06:31.711Z,35.00
2018-10-18T16:09:00.468Z,35.88
2018-10-18T16:11:29.139Z,29.90
2018-10-18T16:13:57.780Z,33.93
2018-10-18T16:16:26.309Z,33.40
2018-10-18T16:18:57.129Z,35.43
2018-10-18T16:21:25.808Z,31.68
2018-10-18T16:23:54.196Z,40.20
2018-10-18T16:26:22.982Z,35.73
2018-10-18T16:28:51.498Z,32.53
2018-10-18T16:31:20.224Z,43.77
2018-10-18T16:33:48.808Z,32.40
2018-10-18T16:36:17.615Z,42.53
2018-10-18T16:38:46.305Z,35.77
2018-10-18T16:41:14.884Z,35.80
2018-10-18T16:43:43.554Z,37.50
2018-10-18T16:46:12.210Z,44.53
2018-10-18T16:48:41.070Z,40.15
2018-10-18T16:51:09.465Z,35.60
2018-10-18T16:53:37.861Z,49.53
2018-10-18T16:56:06.754Z,46.70
2018-10-18T16:58:36.056Z,36.58
2018-10-18T17:01:04.780Z,37.43
2018-10-18T17:03:33.290Z,38.63
2018-10-18T17:06:02.018Z,42.13
2018-10-18T17:08:30.663Z,41.57
2018-10-18T17:10:59.118Z,37.57
2018-10-18T17:13:27.580Z,40.93
2018-10-18T17:15:56.023Z,43.27
2018-10-18T17:18:24.949Z,44.13
2018-10-18T17:20:53.771Z,39.85
2018-10-18T17:23:22.532Z,39.97
2018-10-18T17:25:51.125Z,42.40
2018-10-18T17:28:19.532Z,43.33
2018-10-18T17:30:47.950Z,42.07
2018-10-18T17:33:16.632Z,36.10
2018-10-18T17:35:45.255Z,38.20
2018-10-18T17:38:13.701Z,40.53
2018-10-18T17:40:42.569Z,41.00
2018-10-18T17:43:11.077Z,40.87
2018-10-18T17:45:39.450Z,42.77
2018-10-18T17:48:08.280Z,39.73
2018-10-18T17:50:37.801Z,37.10
2018-10-18T17:53:06.573Z,42.90
2018-10-18T17:55:35.090Z,40.53
2018-10-18T17:58:03.619Z,34.30
2018-10-18T18:00:32.389Z,36.37
2018-10-18T18:03:01.183Z,41.28
2018-10-18T18:05:29.613Z,36.53
2018-10-18T18:07:58.393Z,43.50
2018-10-18T18:10:27.083Z,41.20
2018-10-18T18:12:55.634Z,40.87
2018-10-18T18:15:24.434Z,40.33
2018-10-18T18:17:52.903Z,38.90
2018-10-18T18:20:21.328Z,39.20
2018-10-18T18:22:49.785Z,40.27
2018-10-18T18:25:18.392Z,47.23
2018-10-18T18:27:47.181Z,39.70
2018-10-18T18:30:15.809Z,40.20
2018-10-18T18:32:44.447Z,49.93
2018-10-18T18:35:13.093Z,46.10
2018-10-18T18:37:41.747Z,45.47
2018-10-18T18:40:10.716Z,40.98
2018-10-18T18:42:39.796Z,38.43
2018-10-18T18:45:14.709Z,38.53
2018-10-18T18:47:43.196Z,40.23
2018-10-18T18:50:11.672Z,41.27
2018-10-18T18:52:39.986Z,35.83
2018-10-18T18:55:09.664Z,42.27
2018-10-18T18:57:38.457Z,39.17
2018-10-18T19:00:07.985Z,42.13
2018-10-18T19:02:36.800Z,45.77
2018-10-18T19:05:06.736Z,46.55
2018-10-18T19:07:35.164Z,43.10
2018-10-18T19:10:03.728Z,44.00
2018-10-18T19:12:32.300Z,45.70
2018-10-18T19:15:00.778Z,47.07
2018-10-18T19:17:29.314Z,39.73
2018-10-18T19:19:57.921Z,50.40
2018-10-18T19:22:26.255Z,41.03
2018-10-18T19:24:55.335Z,41.70
2018-10-18T19:27:23.744Z,47.90
2018-10-18T19:29:52.572Z,45.83
2018-10-18T19:32:21.493Z,41.20
2018-10-18T19:34:49.957Z,56.93
2018-10-18T19:37:18.547Z,48.40
2018-10-18T19:39:46.867Z,48.60
2018-10-18T19:42:15.156Z,49.37
2018-10-18T19:44:43.849Z,43.20
2018-10-18T19:47:12.780Z,43.30
2018-10-18T19:49:41.336Z,39.27
2018-10-18T19:52:10.083Z,46.67
2018-10-18T19:54:38.401Z,49.73
2018-10-18T19:57:16.517Z,43.43
2018-10-18T19:59:44.912Z,46.13
2018-10-18T20:02:13.680Z,45.60
2018-10-18T20:04:42.154Z,49.33
2018-10-18T20:07:10.932Z,53.10
2018-10-18T20:09:39.273Z,49.43
2018-10-18T20:12:08.101Z,43.10
2018-10-18T20:14:36.621Z,49.10
2018-10-18T20:17:07.036Z,52.78
2018-10-18T20:19:35.712Z,44.70
2018-10-18T20:22:06.505Z,52.13
2018-10-18T20:24:35.029Z,49.93
2018-10-18T20:27:03.831Z,50.23
2018-10-18T20:29:32.125Z,52.47
2018-10-18T20:32:00.952Z,55.93
2018-10-18T20:34:29.239Z,49.53
2018-10-18T20:36:57.784Z,46.83
2018-10-18T20:39:26.081Z,55.63
2018-10-18T20:41:54.348Z,47.50
2018-10-18T20:44:22.735Z,50.97
2018-10-18T20:46:51.857Z,51.10
2018-10-18T20:49:20.224Z,47.87
2018-10-18T20:51:48.988Z,40.47
2018-10-18T20:54:17.429Z,45.47
2018-10-18T20:56:45.879Z,41.90
2018-10-18T20:59:14.325Z,48.83
2018-10-18T21:01:43.444Z,46.13
2018-10-18T21:04:11.724Z,49.47
2018-10-18T21:06:40.860Z,53.97
2018-10-18T21:09:10.461Z,51.83
2018-10-18T21:11:38.973Z,49.40
2018-10-18T21:14:07.581Z,44.10
2018-10-18T21:16:35.864Z,50.47
2018-10-18T21:19:04.536Z,51.23
2018-10-18T21:21:33.927Z,43.13
2018-10-18T21:24:02.212Z,49.00
2018-10-18T21:26:30.843Z,49.43
2018-10-18T21:28:59.149Z,44.77
2018-10-18T21:31:27.956Z,42.60
2018-10-18T21:33:56.398Z,47.63
2018-10-18T21:36:25.290Z,47.53
2018-10-18T21:38:53.704Z,51.17
2018-10-18T21:41:22.144Z,58.40
2018-10-18T21:43:50.400Z,50.77
2018-10-18T21:46:19.040Z,57.87
2018-10-18T21:48:47.442Z,49.67
2018-10-18T21:51:15.931Z,52.53
2018-10-18T21:53:44.386Z,48.60
2018-10-18T21:56:12.965Z,55.80
2018-10-18T21:58:41.803Z,51.20
2018-10-18T22:01:10.192Z,48.60
2018-10-18T22:03:38.528Z,58.73
2018-10-18T22:06:07.148Z,53.53
2018-10-18T22:08:35.792Z,49.93
2018-10-18T22:11:04.863Z,44.80
2018-10-18T22:13:33.358Z,44.97
2018-10-18T22:16:02.256Z,44.07
2018-10-18T22:18:30.863Z,44.70
2018-10-18T22:20:59.427Z,50.17
2018-10-18T22:23:27.903Z,44.13
2018-10-18T22:25:56.451Z,44.10
2018-10-18T22:28:25.056Z,46.07
2018-10-18T22:30:53.411Z,49.20
2018-10-18T22:33:21.692Z,48.93
2018-10-18T22:35:50.082Z,52.10
2018-10-18T22:38:18.644Z,49.50
2018-10-18T22:40:47.264Z,47.93
2018-10-18T22:43:15.777Z,47.73
2018-10-18T22:45:48.305Z,47.57
2018-10-18T22:48:17.068Z,47.10
2018-10-18T22:50:45.620Z,50.10
2018-10-18T22:53:14.324Z,51.47
2018-10-18T22:55:42.917Z,48.75
2018-10-18T22:58:11.187Z,45.27
2018-10-18T23:00:39.468Z,54.13
2018-10-18T23:03:08.985Z,46.63
2018-10-18T23:05:37.664Z,43.02
2018-10-18T23:08:06.310Z,46.07
2018-10-18T23:10:34.853Z,50.40
2018-10-18T23:13:03.828Z,49.80
2018-10-18T23:15:32.249Z,50.07
2018-10-18T23:18:00.605Z,48.03
2018-10-18T23:20:28.947Z,52.57
2018-10-18T23:22:57.640Z,49.43
2018-10-18T23:25:26.389Z,44.45
2018-10-18T23:27:54.676Z,46.53
2018-10-18T23:30:23.240Z,40.53
2018-10-18T23:32:51.854Z,48.57
2018-10-18T23:35:20.343Z,56.20
2018-10-18T23:37:49.036Z,53.83
2018-10-18T23:40:17.633Z,43.87
2018-10-18T23:42:46.227Z,53.80
2018-10-18T23:45:14.829Z,43.95
2018-10-18T23:47:43.594Z,48.97
2018-10-18T23:50:12.133Z,51.45
2018-10-18T23:52:40.527Z,44.20
2018-10-18T23:55:08.791Z,45.17
2018-10-18T23:57:37.368Z,52.67
